Time;durP1;ratioP1;P1;durP2;ratioP2;P2;SDS_P1;SDS_P2;PMS_P1;PMS_P2;Temp;Humidity;BMP_temperature;BMP_pressure;BME280_temperature;BME280_humidity;BME280_pressure;Samples;Min_cycle;Max_cycle;Signal;HPM_P1;HPM_P2
2022/04/19 00:01:20;;;;;;;3.60;2.87;;;7.50;94.30;;;;;;5028147;28;20424;-70
2022/04/19 00:03:45;;;;;;;3.37;2.87;;;7.50;94.10;;;;;;5029680;28;20213;-71
2022/04/19 00:06:11;;;;;;;3.90;2.83;;;7.50;95.90;;;;;;5027958;28;20194;-71
2022/04/19 00:08:37;;;;;;;7.40;4.20;;;7.40;97.10;;;;;;5030480;28;20181;-71
2022/04/19 00:11:04;;;;;;;4.23;3.50;;;7.40;96.90;;;;;;5041637;28;20178;-73
2022/04/19 00:13:30;;;;;;;3.60;3.10;;;7.30;96.20;;;;;;5029327;28;20210;-71
2022/04/19 00:15:57;;;;;;;3.80;3.00;;;7.30;98.30;;;;;;5027153;28;20466;-72
2022/04/19 00:18:23;;;;;;;6.53;2.90;;;7.60;98.40;;;;;;5028688;28;20471;-72
2022/04/19 00:20:49;;;;;;;7.50;2.83;;;7.20;98.30;;;;;;5027341;28;20850;-71
2022/04/19 00:23:15;;;;;;;4.30;2.93;;;7.10;98.20;;;;;;5027304;28;20538;-71
2022/04/19 00:25:42;;;;;;;3.20;2.90;;;7.20;99.20;;;;;;5028675;28;20565;-71
2022/04/19 00:28:09;;;;;;;3.67;3.07;;;7.00;98.60;;;;;;5025370;28;20448;-71
2022/04/19 00:30:35;;;;;;;3.30;2.80;;;7.00;99.90;;;;;;5027986;28;20440;-72
2022/04/19 00:33:00;;;;;;;4.20;2.80;;;7.30;99.90;;;;;;5027482;28;20480;-71
2022/04/19 00:35:28;;;;;;;3.10;2.60;;;7.00;99.90;;;;;;5027976;28;20190;-71
2022/04/19 00:37:53;;;;;;;5.33;3.10;;;6.90;99.90;;;;;;5027727;28;20198;-71
2022/04/19 00:40:19;;;;;;;4.30;2.87;;;6.80;99.90;;;;;;5029200;28;20513;-72
2022/04/19 00:42:45;;;;;;;4.07;3.33;;;6.70;99.90;;;;;;5026599;28;20304;-71
2022/04/19 00:45:10;;;;;;;4.83;3.50;;;6.60;99.90;;;;;;5028663;28;20281;-72
2022/04/19 00:47:38;;;;;;;9.27;3.83;;;6.60;99.90;;;;;;5027775;28;20198;-71
2022/04/19 00:50:04;;;;;;;3.40;3.10;;;6.40;99.90;;;;;;5023940;28;20206;-71
2022/04/19 00:52:31;;;;;;;4.93;3.17;;;6.50;99.90;;;;;;5026308;28;20433;-72
2022/04/19 00:54:59;;;;;;;3.50;3.20;;;6.80;99.90;;;;;;5027894;28;20562;-71
2022/04/19 00:57:25;;;;;;;4.70;3.27;;;6.40;99.90;;;;;;5026674;28;20448;-71
2022/04/19 00:59:53;;;;;;;5.57;3.63;;;6.90;99.90;;;;;;5023991;28;21011;-71
2022/04/19 01:02:19;;;;;;;4.37;3.33;;;6.50;99.90;;;;;;5026656;28;20504;-71
2022/04/19 01:04:45;;;;;;;4.53;2.90;;;6.60;99.90;;;;;;5042027;28;20950;-71
2022/04/19 01:07:11;;;;;;;3.80;3.00;;;6.60;99.90;;;;;;5027880;28;20190;-71
2022/04/19 01:09:37;;;;;;;5.83;3.03;;;6.80;99.90;;;;;;5034254;28;20692;-72
2022/04/19 01:14:49;;;;;;;3.60;3.23;;;6.80;99.90;;;;;;5028906;28;20326;-71
2022/04/19 01:17:15;;;;;;;4.00;3.20;;;6.80;99.90;;;;;;5031456;28;20644;-72
2022/04/19 01:19:42;;;;;;;5.80;3.10;;;6.80;99.90;;;;;;5028199;28;20428;-72
2022/04/19 01:22:12;;;;;;;5.23;3.13;;;6.80;99.90;;;;;;5025431;28;20441;-71
2022/04/19 01:24:39;;;;;;;4.17;3.40;;;6.60;99.90;;;;;;5028223;28;20416;-71
2022/04/19 01:27:05;;;;;;;6.00;3.57;;;6.60;99.90;;;;;;5025968;28;20506;-72
2022/04/19 01:29:33;;;;;;;5.33;3.10;;;6.50;99.90;;;;;;5027485;28;20432;-71
2022/04/19 01:32:00;;;;;;;4.77;3.20;;;6.50;99.90;;;;;;5025155;28;20273;-71
2022/04/19 01:34:27;;;;;;;4.50;3.80;;;6.40;99.90;;;;;;5026551;28;20460;-71
2022/04/19 01:36:52;;;;;;;3.87;3.10;;;6.20;99.90;;;;;;5027475;28;20443;-72
2022/04/19 01:40:16;;;;;;;6.00;3.70;;;6.20;99.90;;;;;;5024774;28;20784;-71
2022/04/19 01:42:05;;;;;;;5.23;3.17;;;6.30;99.90;;;;;;5026255;28;20185;-71
2022/04/19 01:44:33;;;;;;;3.90;3.40;;;6.20;99.90;;;;;;5025574;28;20498;-71
2022/04/19 01:47:04;;;;;;;3.87;2.83;;;6.20;99.90;;;;;;5032717;28;20441;-72
2022/04/19 01:49:30;;;;;;;4.60;3.23;;;6.20;99.90;;;;;;5041589;28;20539;-71
2022/04/19 01:51:55;;;;;;;4.03;3.60;;;6.30;99.90;;;;;;5025742;28;20954;-71
2022/04/19 01:54:21;;;;;;;4.67;2.87;;;6.30;99.90;;;;;;5026973;28;20662;-72
2022/04/19 01:56:48;;;;;;;4.47;3.27;;;6.30;99.90;;;;;;5032709;28;20524;-72
2022/04/19 01:59:13;;;;;;;4.67;3.60;;;6.30;99.90;;;;;;5024707;28;20174;-71
2022/04/19 02:01:39;;;;;;;4.20;3.53;;;6.30;99.90;;;;;;5026270;28;20416;-71
2022/04/19 02:04:04;;;;;;;4.27;3.13;;;6.30;99.90;;;;;;5025533;28;20899;-71
2022/04/19 02:06:30;;;;;;;4.20;3.30;;;6.20;99.90;;;;;;5027040;28;20225;-71
2022/04/19 02:08:56;;;;;;;4.93;3.40;;;6.20;99.90;;;;;;5026049;28;20201;-71
2022/04/19 02:11:24;;;;;;;6.03;3.33;;;6.20;99.90;;;;;;5025468;28;20248;-71
2022/04/19 02:13:51;;;;;;;4.17;3.47;;;6.20;99.90;;;;;;5025315;28;20528;-71
2022/04/19 02:16:17;;;;;;;4.43;3.13;;;6.10;99.90;;;;;;5026945;28;20514;-71
2022/04/19 02:18:43;;;;;;;4.20;3.20;;;6.00;99.90;;;;;;5024015;28;20998;-71
2022/04/19 02:21:09;;;;;;;4.47;3.50;;;6.00;99.90;;;;;;5023720;28;20467;-71
2022/04/19 02:23:35;;;;;;;4.67;3.70;;;5.80;99.90;;;;;;5025832;28;20182;-71
2022/04/19 02:26:01;;;;;;;3.60;3.30;;;5.90;99.90;;;;;;5025697;28;20178;-71
2022/04/19 02:28:27;;;;;;;3.90;3.27;;;5.70;99.90;;;;;;5026992;28;20531;-71
2022/04/19 02:30:53;;;;;;;4.23;3.40;;;5.60;99.90;;;;;;5025577;28;20524;-70
2022/04/19 02:33:18;;;;;;;6.43;3.47;;;5.60;99.90;;;;;;5025468;28;20197;-71
2022/04/19 02:35:44;;;;;;;4.03;3.10;;;5.70;99.90;;;;;;5027278;28;20178;-71
2022/04/19 02:38:10;;;;;;;4.20;3.17;;;5.80;99.90;;;;;;5025501;28;20201;-71
2022/04/19 02:40:35;;;;;;;3.60;3.10;;;5.80;99.90;;;;;;5032021;28;20185;-71
2022/04/19 02:43:01;;;;;;;3.70;3.13;;;5.90;99.90;;;;;;5025111;28;20607;-71
2022/04/19 02:45:26;;;;;;;4.77;3.30;;;5.70;99.90;;;;;;5026655;28;20170;-71
2022/04/19 02:48:04;;;;;;;3.87;3.47;;;5.60;99.90;;;;;;5024504;28;20217;-71
2022/04/19 02:50:39;;;;;;;6.60;3.30;;;5.50;99.90;;;;;;5026794;28;20274;-71
2022/04/19 02:53:04;;;;;;;4.43;3.20;;;5.40;99.90;;;;;;5017451;28;20471;-71
2022/04/19 02:55:30;;;;;;;4.77;3.47;;;5.40;99.90;;;;;;5026801;28;20413;-71
2022/04/19 02:57:56;;;;;;;3.73;3.33;;;5.40;99.90;;;;;;5024936;28;20198;-71
2022/04/19 03:00:21;;;;;;;5.63;3.53;;;5.30;99.90;;;;;;5024364;28;20373;-71
2022/04/19 03:02:47;;;;;;;5.40;3.20;;;5.20;99.90;;;;;;5026102;28;20273;-72
2022/04/19 03:05:13;;;;;;;5.93;3.50;;;5.10;99.90;;;;;;5026390;28;20185;-71
2022/04/19 03:07:38;;;;;;;3.73;3.43;;;5.00;99.90;;;;;;5026896;28;20668;-71
2022/04/19 03:10:06;;;;;;;4.53;3.67;;;5.50;99.90;;;;;;5036398;28;20549;-71
2022/04/19 03:12:31;;;;;;;5.40;3.30;;;5.00;99.90;;;;;;5026311;28;20643;-71
2022/04/19 03:14:57;;;;;;;5.07;3.90;;;5.20;99.90;;;;;;5029298;28;20460;-71
2022/04/19 03:17:22;;;;;;;6.27;3.37;;;5.00;99.90;;;;;;5029395;28;20667;-71
2022/04/19 03:19:48;;;;;;;8.50;3.70;;;5.00;99.90;;;;;;5030406;28;20233;-71
2022/04/19 03:22:13;;;;;;;4.97;3.80;;;5.00;99.90;;;;;;5029126;28;20260;-71
2022/04/19 03:27:41;;;;;;;4.70;3.80;;;5.20;99.90;;;;;;5027900;28;20259;-70
2022/04/19 03:30:08;;;;;;;5.80;3.40;;;5.30;99.90;;;;;;5029907;28;20871;-70
2022/04/19 03:32:35;;;;;;;4.93;3.63;;;5.30;99.90;;;;;;5027455;28;20479;-70
2022/04/19 03:35:00;;;;;;;4.17;3.47;;;5.50;99.90;;;;;;5020691;28;20460;-71
2022/04/19 03:37:26;;;;;;;6.93;3.40;;;5.10;99.90;;;;;;5028662;28;20459;-71
2022/04/19 03:39:51;;;;;;;3.80;3.43;;;5.10;99.90;;;;;;5029609;28;20261;-70
2022/04/19 03:42:17;;;;;;;4.67;3.80;;;5.10;99.90;;;;;;5027861;28;20189;-71
2022/04/19 03:44:42;;;;;;;5.27;3.63;;;5.10;99.90;;;;;;5029364;28;20202;-70
2022/04/19 03:47:08;;;;;;;9.20;3.53;;;5.00;99.90;;;;;;5028938;28;20212;-71
2022/04/19 03:49:38;;;;;;;5.10;3.40;;;5.00;99.90;;;;;;5029798;28;20174;-71
2022/04/19 03:52:04;;;;;;;4.40;3.37;;;5.00;99.90;;;;;;5027169;28;20514;-70
2022/04/19 03:54:34;;;;;;;5.33;3.50;;;4.90;99.90;;;;;;5025637;28;21326;-71
2022/04/19 03:57:01;;;;;;;4.87;3.97;;;4.90;99.90;;;;;;5010852;28;20429;-71
2022/04/19 03:59:26;;;;;;;5.37;4.37;;;4.90;99.90;;;;;;5029228;28;20421;-70
2022/04/19 04:01:52;;;;;;;6.30;4.17;;;4.90;99.90;;;;;;5028926;28;20427;-71
2022/04/19 04:04:17;;;;;;;4.07;3.53;;;4.90;99.90;;;;;;5029283;28;20261;-71
2022/04/19 04:06:43;;;;;;;5.80;3.90;;;5.20;99.90;;;;;;5029385;28;20225;-71
2022/04/19 04:09:08;;;;;;;4.30;3.47;;;5.10;99.90;;;;;;5028793;28;20179;-71
2022/04/19 04:11:33;;;;;;;5.07;3.93;;;5.00;99.90;;;;;;5029009;28;20178;-71
2022/04/19 04:13:59;;;;;;;4.77;3.20;;;4.90;99.90;;;;;;5028238;28;20205;-71
2022/04/19 04:16:24;;;;;;;9.43;3.97;;;4.90;99.90;;;;;;5029414;28;20197;-71
2022/04/19 04:18:50;;;;;;;4.40;3.70;;;4.90;99.90;;;;;;5027390;28;20178;-71
2022/04/19 04:21:16;;;;;;;5.27;3.70;;;4.70;99.90;;;;;;5026174;28;20185;-71
2022/04/19 04:23:41;;;;;;;5.13;3.87;;;4.60;99.90;;;;;;5025081;28;20504;-70
2022/04/19 04:26:07;;;;;;;7.03;4.50;;;4.10;99.90;;;;;;5028454;28;20178;-71
2022/04/19 04:28:32;;;;;;;5.80;3.90;;;4.50;99.90;;;;;;5028262;28;20177;-70
2022/04/19 04:30:58;;;;;;;5.60;3.57;;;4.30;99.90;;;;;;5028920;28;20174;-71
2022/04/19 04:33:23;;;;;;;5.57;4.47;;;4.30;99.90;;;;;;5026916;28;20213;-70
2022/04/19 04:35:49;;;;;;;3.63;3.33;;;4.30;99.90;;;;;;5029615;28;20166;-70
2022/04/19 04:38:14;;;;;;;6.10;3.93;;;4.40;99.90;;;;;;5028032;28;20247;-71
2022/04/19 04:40:40;;;;;;;4.03;3.57;;;4.40;99.90;;;;;;5028794;28;20247;-70
2022/04/19 04:43:06;;;;;;;5.50;3.90;;;4.50;99.90;;;;;;5027294;28;20177;-70
2022/04/19 04:45:31;;;;;;;7.63;4.10;;;4.60;99.90;;;;;;5027590;28;20255;-71
2022/04/19 04:50:41;;;;;;;10.47;3.73;;;4.60;99.90;;;;;;5027096;28;20265;-72
2022/04/19 04:53:07;;;;;;;7.37;3.80;;;4.60;99.90;;;;;;5024494;28;20571;-71
2022/04/19 04:55:32;;;;;;;4.60;3.53;;;4.60;99.90;;;;;;5026730;28;20180;-71
2022/04/19 04:58:01;;;;;;;7.30;4.23;;;4.60;99.90;;;;;;5027602;28;20190;-71
2022/04/19 05:00:27;;;;;;;5.43;3.70;;;4.50;99.90;;;;;;5025237;28;20174;-71
2022/04/19 05:02:52;;;;;;;4.30;3.53;;;4.60;99.90;;;;;;5027377;28;20427;-71
2022/04/19 05:05:18;;;;;;;4.80;3.97;;;4.60;99.90;;;;;;5028312;28;20184;-71
2022/04/19 05:07:43;;;;;;;7.93;4.30;;;4.70;99.90;;;;;;5027790;28;20193;-72
2022/04/19 05:10:09;;;;;;;5.77;3.67;;;4.70;99.90;;;;;;5037739;28;20620;-71
2022/04/19 05:12:35;;;;;;;9.40;3.93;;;4.70;99.90;;;;;;5027012;28;20644;-71
2022/04/19 05:15:01;;;;;;;5.20;4.00;;;4.70;99.90;;;;;;5026084;28;20201;-71
2022/04/19 05:17:27;;;;;;;8.07;4.30;;;4.80;99.90;;;;;;5026957;28;20379;-71
2022/04/19 05:19:54;;;;;;;5.50;3.60;;;4.90;99.90;;;;;;5027341;28;20854;-71
2022/04/19 05:22:19;;;;;;;5.27;4.03;;;5.10;99.90;;;;;;5026212;28;20186;-71
2022/04/19 05:24:45;;;;;;;5.83;4.20;;;5.20;99.90;;;;;;5027355;28;20466;-71
2022/04/19 05:27:10;;;;;;;5.83;4.20;;;5.80;99.90;;;;;;5020413;28;20232;-71
2022/04/19 05:29:36;;;;;;;4.30;3.60;;;5.50;99.90;;;;;;5026194;28;20178;-75
2022/04/19 05:32:01;;;;;;;5.67;4.07;;;5.60;99.90;;;;;;5022196;28;20181;-72
2022/04/19 05:34:27;;;;;;;4.73;3.70;;;5.60;99.90;;;;;;5024850;28;20279;-72
2022/04/19 05:36:52;;;;;;;5.27;3.80;;;6.00;99.90;;;;;;5021068;28;20201;-72
2022/04/19 05:39:18;;;;;;;8.13;4.20;;;6.00;99.90;;;;;;5019557;28;20200;-72
2022/04/19 05:41:43;;;;;;;7.33;4.20;;;6.20;99.90;;;;;;5024216;28;20174;-73
2022/04/19 05:44:09;;;;;;;11.70;4.00;;;6.40;99.90;;;;;;5033408;28;20528;-72
2022/04/19 05:46:36;;;;;;;5.23;3.73;;;6.70;99.90;;;;;;5023749;28;20283;-73
2022/04/19 05:49:04;;;;;;;5.53;4.00;;;6.90;99.90;;;;;;5025452;28;20178;-73
2022/04/19 05:51:30;;;;;;;5.07;4.17;;;7.00;99.90;;;;;;5021033;28;20502;-72
2022/04/19 05:53:55;;;;;;;9.10;4.60;;;7.30;99.90;;;;;;5023164;28;20803;-73
2022/04/19 05:56:21;;;;;;;5.50;3.80;;;7.50;99.90;;;;;;5020850;28;20355;-73
2022/04/19 05:58:46;;;;;;;6.47;4.47;;;7.60;99.90;;;;;;5016227;28;20178;-72
2022/04/19 06:01:12;;;;;;;5.00;3.90;;;7.80;99.90;;;;;;5021036;28;20188;-72
2022/04/19 06:06:22;;;;;;;5.33;4.20;;;7.70;99.90;;;;;;5025223;28;20697;-72
2022/04/19 06:08:49;;;;;;;5.70;3.97;;;7.90;99.90;;;;;;5028621;28;20420;-73
2022/04/19 06:11:14;;;;;;;4.40;3.73;;;8.10;99.90;;;;;;5031490;28;20178;-72
2022/04/19 06:13:40;;;;;;;6.33;3.30;;;8.10;99.90;;;;;;5024556;28;20879;-72
2022/04/19 06:16:06;;;;;;;8.87;4.30;;;8.30;99.90;;;;;;5019400;28;20268;-71
2022/04/19 06:18:33;;;;;;;5.73;3.70;;;8.60;99.90;;;;;;5022811;28;20655;-72
2022/04/19 06:20:59;;;;;;;3.53;3.23;;;8.80;99.90;;;;;;5022986;28;20619;-71
2022/04/19 06:23:25;;;;;;;3.80;3.40;;;9.00;99.90;;;;;;5025810;28;20433;-71
2022/04/19 06:25:51;;;;;;;4.20;3.77;;;9.10;99.90;;;;;;5026100;28;20955;-72
2022/04/19 06:28:17;;;;;;;6.20;3.90;;;9.40;99.90;;;;;;5027198;28;20691;-70
2022/04/19 06:30:43;;;;;;;4.83;3.40;;;9.50;99.30;;;;;;5024308;28;20189;-71
2022/04/19 06:33:09;;;;;;;4.33;3.20;;;9.70;99.30;;;;;;5030956;28;20901;-70
2022/04/19 06:35:34;;;;;;;7.03;4.30;;;9.90;99.40;;;;;;5025946;28;20209;-71
2022/04/19 06:38:00;;;;;;;4.83;3.63;;;10.00;97.00;;;;;;5028307;28;20223;-71
2022/04/19 06:40:25;;;;;;;5.73;3.93;;;10.20;94.60;;;;;;5042577;28;20237;-72
2022/04/19 06:42:51;;;;;;;7.00;3.93;;;10.10;91.60;;;;;;5025279;28;20190;-70
2022/04/19 06:45:18;;;;;;;5.87;4.30;;;10.20;92.50;;;;;;5026046;28;20190;-70
2022/04/19 06:47:44;;;;;;;11.63;4.60;;;10.20;92.20;;;;;;5025731;28;20691;-71
2022/04/19 06:50:10;;;;;;;6.10;4.30;;;10.40;91.80;;;;;;5025386;28;20911;-71
2022/04/19 06:52:35;;;;;;;4.80;4.13;;;10.50;92.10;;;;;;5020833;28;20436;-70
2022/04/19 06:55:01;;;;;;;5.40;4.80;;;10.50;91.50;;;;;;5026091;28;20281;-70
2022/04/19 06:57:27;;;;;;;6.60;4.57;;;10.50;91.20;;;;;;5025713;28;20244;-71
2022/04/19 06:59:52;;;;;;;5.70;4.77;;;10.60;90.00;;;;;;5025472;28;20182;-70
2022/04/19 07:02:17;;;;;;;7.53;4.53;;;10.80;90.20;;;;;;5026563;28;20209;-70
2022/04/19 07:04:43;;;;;;;9.27;5.10;;;11.10;84.00;;;;;;5024442;28;20531;-72
2022/04/19 07:07:09;;;;;;;6.47;4.47;;;11.10;84.60;;;;;;5025710;28;20193;-71
2022/04/19 07:09:35;;;;;;;6.43;4.60;;;11.30;83.00;;;;;;5026921;28;20186;-71
2022/04/19 07:12:00;;;;;;;7.30;4.67;;;11.70;80.20;;;;;;5026067;28;20611;-72
2022/04/19 07:14:26;;;;;;;5.40;4.50;;;11.80;77.80;;;;;;5026264;28;20202;-70
2022/04/19 07:16:52;;;;;;;4.87;4.10;;;12.10;75.20;;;;;;5026353;28;20201;-72
2022/04/19 07:19:18;;;;;;;5.87;4.90;;;12.50;71.60;;;;;;5027588;28;20217;-70
2022/04/19 07:27:11;;;;;;;6.63;4.90;;;13.30;64.40;;;;;;5020397;28;20585;-70
2022/04/19 07:29:37;;;;;;;5.37;4.20;;;13.50;60.00;;;;;;5024018;28;20448;-72
2022/04/19 07:32:03;;;;;;;5.60;4.80;;;13.70;58.60;;;;;;5040111;28;20332;-71
2022/04/19 07:34:28;;;;;;;5.53;4.67;;;14.00;55.40;;;;;;5025315;28;20695;-71
2022/04/19 07:36:56;;;;;;;13.30;4.30;;;14.20;52.10;;;;;;5023433;28;20216;-70
2022/04/19 07:39:21;;;;;;;5.33;4.50;;;14.60;51.10;;;;;;5024161;28;20170;-71
2022/04/19 07:41:47;;;;;;;5.50;4.13;;;15.30;42.50;;;;;;5034573;28;20761;-70
2022/04/19 07:44:15;;;;;;;6.93;4.60;;;16.60;43.50;;;;;;5032492;28;20543;-70
2022/04/19 07:46:42;;;;;;;9.30;4.87;;;17.90;44.60;;;;;;5023105;28;20202;-70
2022/04/19 07:49:08;;;;;;;9.73;6.00;;;19.00;36.50;;;;;;5026673;28;20427;-71
2022/04/19 07:51:35;;;;;;;8.40;5.70;;;20.10;27.90;;;;;;5026367;28;20494;-72
2022/04/19 07:54:01;;;;;;;10.97;5.80;;;21.00;20.00;;;;;;5026399;28;20647;-71
2022/04/19 07:56:26;;;;;;;7.13;5.50;;;21.60;18.30;;;;;;5026180;28;20456;-71
2022/04/19 07:58:52;;;;;;;10.57;5.80;;;22.70;16.90;;;;;;5026988;28;20974;-72
2022/04/19 08:01:19;;;;;;;6.77;5.50;;;23.50;10.20;;;;;;5030736;28;20181;-71
2022/04/19 08:03:45;;;;;;;8.67;5.63;;;23.80;11.40;;;;;;5029011;28;20494;-72
2022/04/19 08:06:10;;;;;;;9.43;5.77;;;24.20;6.90;;;;;;5029318;28;20173;-71
2022/04/19 08:08:37;;;;;;;9.53;6.20;;;24.80;5.60;;;;;;5037631;28;20665;-72
2022/04/19 08:11:05;;;;;;;9.45;5.93;;;25.60;3.30;;;;;;5026567;28;20533;-74
2022/04/19 08:13:31;;;;;;;7.95;5.90;;;26.00;1.00;;;;;;5045392;28;20201;-72
2022/04/19 08:15:59;;;;;;;10.10;6.13;;;26.30;1.00;;;;;;5027447;28;20705;-72
2022/04/19 08:18:25;;;;;;;6.15;5.55;;;26.60;1.00;;;;;;5037250;28;20188;-72
2022/04/19 08:20:51;;;;;;;7.95;6.13;;;26.50;1.00;;;;;;5028329;28;20189;-72
2022/04/19 08:23:17;;;;;;;9.35;6.05;;;26.60;1.00;;;;;;5022791;28;20857;-72
2022/04/19 08:25:43;;;;;;;7.75;6.28;;;27.00;1.00;;;;;;5028206;28;20296;-72
2022/04/19 08:28:09;;;;;;;7.53;5.80;;;27.50;1.00;;;;;;5040901;28;20250;-72
2022/04/19 08:30:34;;;;;;;9.43;6.15;;;27.80;1.00;;;;;;5027792;28;20388;-73
2022/04/19 08:33:00;;;;;;;8.68;6.20;;;28.20;1.00;;;;;;5028535;28;20327;-72
2022/04/19 08:35:26;;;;;;;9.10;6.35;;;28.70;1.00;;;;;;5028270;28;20181;-72
2022/04/19 08:37:52;;;;;;;9.90;6.30;;;28.80;1.00;;;;;;5027310;28;20212;-70
2022/04/19 08:40:18;;;;;;;8.65;5.90;;;28.40;1.00;;;;;;5043889;28;20550;-71
2022/04/19 08:42:45;;;;;;;11.68;6.60;;;28.50;1.00;;;;;;5035596;28;20249;-72
2022/04/19 08:45:13;;;;;;;8.45;6.00;;;28.70;1.00;;;;;;5028949;28;20598;-72
2022/04/19 08:47:41;;;;;;;8.90;5.75;;;29.20;1.00;;;;;;5027224;28;20215;-72
2022/04/19 08:50:12;;;;;;;7.95;5.65;;;29.20;1.00;;;;;;5028999;28;20631;-72
2022/04/19 08:52:38;;;;;;;7.50;6.20;;;29.40;1.00;;;;;;5027608;28;20200;-71
2022/04/19 08:57:50;;;;;;;10.20;6.30;;;29.50;1.00;;;;;;5027704;28;20219;-71
2022/04/19 09:00:15;;;;;;;9.30;6.30;;;29.50;1.00;;;;;;5028165;28;20357;-71
2022/04/19 09:02:41;;;;;;;8.02;5.57;;;29.30;1.00;;;;;;5039174;28;20407;-72
2022/04/19 09:05:17;;;;;;;8.10;6.00;;;29.80;1.00;;;;;;5032660;28;20259;-72
2022/04/19 09:07:45;;;;;;;7.05;5.75;;;30.00;1.00;;;;;;5027736;28;20744;-71
2022/04/19 09:10:15;;;;;;;7.63;5.68;;;30.10;1.00;;;;;;5028630;28;20193;-72
2022/04/19 09:12:56;;;;;;;7.22;4.93;;;30.20;1.00;;;;;;5035407;28;20192;-71
2022/04/19 09:15:21;;;;;;;7.03;5.38;;;30.20;1.00;;;;;;5033013;28;20662;-71
2022/04/19 09:17:49;;;;;;;8.10;6.28;;;30.80;1.00;;;;;;5027604;28;20214;-71
2022/04/19 09:20:19;;;;;;;7.45;5.90;;;31.60;1.00;;;;;;5034519;28;20173;-72
2022/04/19 09:22:58;;;;;;;10.23;6.10;;;32.10;1.00;;;;;;5027659;28;20663;-72
2022/04/19 09:25:25;;;;;;;8.57;5.80;;;32.30;1.00;;;;;;5035382;28;20249;-72
2022/04/19 09:27:53;;;;;;;10.73;5.60;;;32.30;1.00;;;;;;5047632;28;20204;-72
2022/04/19 09:30:26;;;;;;;9.82;5.88;;;32.40;1.00;;;;;;5048761;28;20641;-73
2022/04/19 09:33:10;;;;;;;9.73;6.13;;;32.70;1.00;;;;;;5034603;28;20992;-73
2022/04/19 09:35:47;;;;;;;7.68;6.20;;;32.70;1.00;;;;;;5037053;28;20188;-73
2022/04/19 09:38:13;;;;;;;12.85;6.43;;;32.80;1.00;;;;;;5036762;28;20227;-73
2022/04/19 09:40:43;;;;;;;10.18;6.20;;;33.10;1.00;;;;;;5028241;28;20284;-73
2022/04/19 09:43:20;;;;;;;11.60;6.60;;;32.70;1.00;;;;;;5033278;28;20569;-73
2022/04/19 09:45:52;;;;;;;12.15;6.25;;;32.60;1.00;;;;;;5040052;28;20164;-73
2022/04/19 09:48:20;;;;;;;13.48;6.55;;;32.90;1.00;;;;;;5042246;28;20184;-73
2022/04/19 09:50:51;;;;;;;9.52;6.30;;;33.10;1.00;;;;;;5038873;28;20180;-73
2022/04/19 09:53:18;;;;;;;12.23;6.32;;;33.50;1.00;;;;;;5042831;28;20173;-74
2022/04/19 09:55:47;;;;;;;7.82;6.40;;;34.10;1.00;;;;;;5048341;28;20164;-73
2022/04/19 09:58:14;;;;;;;8.85;6.65;;;34.30;1.00;;;;;;5037539;28;20565;-73
2022/04/19 10:00:40;;;;;;;8.15;6.47;;;34.60;1.00;;;;;;5027646;28;20173;-73
2022/04/19 10:08:37;;;;;;;7.90;6.15;;;34.80;1.00;;;;;;5043059;28;20724;-73
2022/04/19 10:11:03;;;;;;;8.77;5.93;;;35.00;1.00;;;;;;5026740;28;20187;-74
2022/04/19 10:13:30;;;;;;;7.05;5.70;;;35.20;1.00;;;;;;5034257;28;20776;-73
2022/04/19 10:15:55;;;;;;;8.20;5.80;;;35.30;1.00;;;;;;5047975;28;20454;-73
2022/04/19 10:18:21;;;;;;;11.70;5.90;;;35.70;1.00;;;;;;5048336;28;20583;-74
2022/04/19 10:20:55;;;;;;;7.10;5.80;;;35.90;1.00;;;;;;5043059;28;20522;-73
2022/04/19 10:23:31;;;;;;;6.78;5.40;;;36.30;1.00;;;;;;5025454;28;20187;-73
2022/04/19 10:26:12;;;;;;;6.43;5.32;;;36.20;1.00;;;;;;5027022;28;20169;-73
2022/04/19 10:28:38;;;;;;;12.52;5.70;;;36.10;1.00;;;;;;5026769;28;20338;-74
2022/04/19 10:31:03;;;;;;;8.27;5.75;;;35.90;1.00;;;;;;5030637;28;20710;-72
2022/04/19 10:33:39;;;;;;;8.27;5.75;;;35.80;1.00;;;;;;5043081;28;20204;-72
2022/04/19 10:36:23;;;;;;;8.00;5.72;;;36.10;1.00;;;;;;5046401;28;20168;-73
2022/04/19 10:39:08;;;;;;;9.77;6.13;;;36.80;1.00;;;;;;5043466;28;20168;-72
2022/04/19 10:41:53;;;;;;;10.05;6.47;;;37.60;1.00;;;;;;5034812;28;20208;-72
2022/04/19 10:44:31;;;;;;;7.80;5.22;;;37.20;1.00;;;;;;5030368;28;20173;-72
2022/04/19 10:47:16;;;;;;;8.45;5.78;;;37.00;1.00;;;;;;5027746;28;20659;-73
2022/04/19 10:50:03;;;;;;;6.85;5.80;;;36.90;1.00;;;;;;5006238;28;20275;-73
2022/04/19 10:52:40;;;;;;;7.30;5.78;;;37.00;1.00;;;;;;5022383;28;20192;-73
2022/04/19 10:55:21;;;;;;;9.32;6.00;;;37.30;1.00;;;;;;5026685;28;20244;-73
2022/04/19 11:00:40;;;;;;;8.65;6.20;;;37.50;1.00;;;;;;5032112;28;20538;-73
2022/04/19 11:03:18;;;;;;;11.23;6.60;;;37.80;1.00;;;;;;5038681;28;20262;-74
2022/04/19 11:05:47;;;;;;;8.40;6.32;;;37.90;1.00;;;;;;5032613;28;20242;-73
2022/04/19 11:08:24;;;;;;;8.02;6.70;;;37.50;1.00;;;;;;5027646;28;20193;-72
2022/04/19 11:11:02;;;;;;;9.70;6.60;;;37.30;1.00;;;;;;5032280;28;20523;-73
2022/04/19 11:13:31;;;;;;;7.82;6.15;;;37.80;1.00;;;;;;5026364;28;20204;-73
2022/04/19 11:15:57;;;;;;;6.90;6.20;;;38.40;1.00;;;;;;5035544;28;20188;-73
2022/04/19 11:18:28;;;;;;;9.48;6.40;;;38.50;1.00;;;;;;5025431;28;20193;-74
2022/04/19 11:20:57;;;;;;;8.27;6.15;;;38.70;1.00;;;;;;5027082;28;20189;-74
2022/04/19 11:23:25;;;;;;;9.77;6.53;;;38.60;1.00;;;;;;5027546;28;20558;-74
2022/04/19 11:25:51;;;;;;;8.05;6.43;;;38.30;1.00;;;;;;5028234;28;20312;-75
2022/04/19 11:28:19;;;;;;;6.93;5.50;;;38.10;1.00;;;;;;5037784;28;20283;-73
2022/04/19 11:31:05;;;;;;;7.38;4.85;;;37.90;1.00;;;;;;5037049;28;20644;-73
2022/04/19 11:33:35;;;;;;;5.97;5.38;;;37.80;1.00;;;;;;5033447;28;20224;-73
2022/04/19 11:36:02;;;;;;;7.38;4.88;;;37.50;1.00;;;;;;5028628;28;20177;-73
2022/04/19 11:38:29;;;;;;;11.60;4.95;;;36.90;1.00;;;;;;5031320;28;20280;-73
2022/04/19 11:49:29;;;;;;;4.75;4.25;;;35.40;1.00;;;;;;5028064;28;20195;-73
2022/04/19 11:52:01;;;;;;;5.22;4.13;;;35.70;1.00;;;;;;5027564;28;20200;-73
2022/04/19 11:54:29;;;;;;;6.18;4.60;;;34.80;1.00;;;;;;5028323;28;20591;-72
2022/04/19 11:57:01;;;;;;;6.10;4.10;;;34.20;1.00;;;;;;5028285;28;20288;-72
2022/04/19 11:59:29;;;;;;;5.45;4.32;;;34.70;1.00;;;;;;5028507;28;20178;-72
2022/04/19 12:01:56;;;;;;;6.72;3.92;;;35.80;1.00;;;;;;5029510;28;20181;-72
2022/04/19 12:04:22;;;;;;;6.80;3.65;;;36.10;1.00;;;;;;5028118;28;20710;-72
2022/04/19 12:07:02;;;;;;;6.47;3.40;;;36.20;1.00;;;;;;5028773;28;20209;-72
2022/04/19 12:09:30;;;;;;;5.07;4.00;;;37.00;1.00;;;;;;5037913;28;20168;-71
2022/04/19 12:11:56;;;;;;;4.70;3.90;;;37.50;1.00;;;;;;5027692;28;20276;-72
2022/04/19 12:14:31;;;;;;;9.52;4.18;;;36.60;1.00;;;;;;5030060;28;20201;-72
2022/04/19 12:17:06;;;;;;;6.63;4.45;;;36.60;1.00;;;;;;5029323;28;20199;-72
2022/04/19 12:19:40;;;;;;;5.32;3.92;;;37.40;1.00;;;;;;5028979;28;20496;-72
2022/04/19 12:22:22;;;;;;;7.10;4.93;;;37.40;1.00;;;;;;5026742;28;20305;-72
2022/04/19 12:24:55;;;;;;;9.23;4.70;;;37.30;1.00;;;;;;5028908;28;20181;-72
2022/04/19 12:27:39;;;;;;;6.05;4.60;;;37.70;1.00;;;;;;5028526;28;20709;-71
2022/04/19 12:30:12;;;;;;;5.53;4.60;;;37.70;1.00;;;;;;5028689;28;20188;-71
2022/04/19 12:32:51;;;;;;;20.50;5.20;;;37.70;1.00;;;;;;5026287;28;20183;-73
2022/04/19 12:35:17;;;;;;;5.00;4.30;;;38.00;1.00;;;;;;5029275;28;20251;-72
2022/04/19 12:37:43;;;;;;;6.82;4.57;;;38.10;1.00;;;;;;5031346;28;20198;-72
2022/04/19 12:40:09;;;;;;;5.78;4.88;;;39.00;1.00;;;;;;5040951;28;20200;-71
2022/04/19 12:42:51;;;;;;;5.30;3.92;;;38.50;1.00;;;;;;5029995;28;20235;-73
2022/04/19 12:45:18;;;;;;;4.80;4.30;;;38.60;1.00;;;;;;5027559;28;20169;-72
2022/04/19 12:47:50;;;;;;;6.38;5.50;;;39.30;1.00;;;;;;5027850;28;20611;-72
2022/04/19 12:50:17;;;;;;;6.13;4.43;;;39.30;1.00;;;;;;5029371;28;20556;-72
2022/04/19 12:52:43;;;;;;;5.03;4.15;;;39.00;1.00;;;;;;5022596;28;20177;-72
2022/04/19 12:55:09;;;;;;;7.63;4.80;;;38.50;1.00;;;;;;5029199;28;20255;-73
2022/04/19 12:57:38;;;;;;;5.43;4.65;;;37.50;1.00;;;;;;5028471;28;20250;-73
2022/04/19 13:00:06;;;;;;;6.07;4.60;;;37.70;1.00;;;;;;5029966;28;20644;-73
2022/04/19 13:02:31;;;;;;;5.43;4.20;;;37.50;1.00;;;;;;5026462;28;20182;-73
2022/04/19 13:04:57;;;;;;;8.10;5.35;;;38.00;1.00;;;;;;5029237;28;20174;-73
2022/04/19 13:12:57;;;;;;;6.00;5.03;;;36.40;1.00;;;;;;5028301;28;20628;-72
2022/04/19 13:15:22;;;;;;;5.80;5.15;;;35.90;1.00;;;;;;5029053;28;20259;-72
2022/04/19 13:17:48;;;;;;;7.43;5.15;;;36.20;1.00;;;;;;5028153;28;20244;-72
2022/04/19 13:20:13;;;;;;;7.18;5.65;;;36.50;1.00;;;;;;5029173;28;20205;-70
2022/04/19 13:22:39;;;;;;;6.10;4.80;;;37.30;1.00;;;;;;5027192;28;20653;-71
2022/04/19 13:25:07;;;;;;;7.82;5.60;;;36.90;1.00;;;;;;5029271;28;20189;-72
2022/04/19 13:27:35;;;;;;;6.40;4.90;;;37.20;1.00;;;;;;5028917;28;20327;-72
2022/04/19 13:30:06;;;;;;;7.25;4.80;;;36.40;1.00;;;;;;5027847;28;20219;-72
2022/04/19 13:32:33;;;;;;;7.93;5.20;;;36.60;1.00;;;;;;5027610;28;20724;-72
2022/04/19 13:34:58;;;;;;;5.90;5.20;;;37.30;1.00;;;;;;5027939;28;20212;-72
2022/04/19 13:38:23;;;;;;;5.70;4.90;;;37.40;1.00;;;;;;5026965;28;20390;-72
2022/04/19 13:40:20;;;;;;;6.57;5.30;;;37.10;1.00;;;;;;5022667;28;20188;-72